Burnside, LA

6:03 PM CST on February 07, 2016 (GMT -0600)
Gonzales

Weather History for KL38 - November, 2013

Change the Weather History Date:

Thursday, November 7, 2013

  Actual Average (KBTR) Record (KBTR)
Temperature  
Mean Temperature 59 °F 63 °F  
Max Temperature 69 °F 75 °F 86 °F (1919)
Min Temperature 48 °F 51 °F 28 °F (1959)
Degree Days  
Heating Degree Days 6 4  
Month to date heating degree days 27  
Since 1 July heating degree days 73  
Cooling Degree Days 0 2  
Month to date cooling degree days 18  
Year to date cooling degree days 2768  
Growing Degree Days 9 (Base 50)    
Moisture  
Dew Point 48 °F    
Average Humidity 70    
Maximum Humidity 99    
Minimum Humidity 40    
Precipitation  
Precipitation 0.01 in 0.15 in 6.16 in (1989)
Month to date precipitation 1.01  
Year to date precipitation 51.96  
Snow  
Snow 0.00 in - - ()
Month to date snowfall  
Since 1 July snowfall  
Since 1 September snowfall  
Snow Depth -    
Sea Level Pressure  
Sea Level Pressure 30.23 in    
Wind  
Wind Speed 10 mph (North)    
Max Wind Speed 16 mph    
Max Gust Speed 24 mph    
Visibility 10 miles    
Events      
T = Trace of Precipitation, MM = Missing Value Source: NWS Daily Summary

Daily Weather History Graph

Daily Weather History Graph

Search for Another Location

Airport or City:

Trip Planner

Search our weather history database for the weather conditions in past years. The results will help you decide how hot, cold, wet, or windy it might be!

Date:

Astronomy

Nov. 07, 2013 Rise Set
Actual Time 6:22 AM CST 5:11 PM CST
Civil Twilight 5:57 AM CST 5:36 PM CST
Nautical Twilight 5:29 AM CST 6:05 PM CST
Astronomical Twilight 5:00 AM CST 6:33 PM CST
Moon 10:27 AM CST (11/7) 9:26 PM CST (11/7)
Length of Visible Light 11h 39m
Length of Day
10h 48m
Waxing Crescent, 23% of the Moon is Illuminated
Nov 7
Waxing Crescent
Nov 9
First Quarter
Nov 17
Full
Nov 25
Last Quarter
Dec 2
New

Hourly Weather History & Observations

Time (CST) Temp. Dew Point Humidity Pressure Visibility Wind Dir Wind Speed Gust Speed Precip Events Conditions
12:15 AM 69.4 °F 69.1 °F 99% 30.10 in 10.0 mi NNW 9.2 mph - N/A   Overcast
12:35 AM 69.1 °F 67.5 °F 95% 30.10 in 10.0 mi NNW 12.7 mph 17.3 mph N/A   Overcast
12:55 AM 68.5 °F 65.8 °F 91% 30.10 in 10.0 mi NNW 10.4 mph - N/A   Overcast
1:15 AM 68.0 °F 64.4 °F 88% 30.11 in 10.0 mi NNW 8.1 mph 16.1 mph N/A   Overcast
1:35 AM 67.5 °F 64.0 °F 89% 30.11 in 10.0 mi North 10.4 mph 18.4 mph N/A   Overcast
1:55 AM 67.1 °F 64.4 °F 91% 30.11 in 10.0 mi NNW 9.2 mph - N/A   Overcast
2:15 AM 67.1 °F 64.0 °F 90% 30.11 in 10.0 mi North 8.1 mph 17.3 mph N/A   Overcast
2:35 AM 67.1 °F 64.0 °F 90% 30.11 in 10.0 mi North 6.9 mph - N/A   Overcast
2:55 AM 66.9 °F 64.2 °F 91% 30.11 in 10.0 mi NNW 9.2 mph - N/A   Overcast
3:15 AM 66.0 °F 63.9 °F 93% 30.11 in 7.0 mi NNW 13.8 mph 17.3 mph N/A   Overcast
3:35 AM 64.4 °F 61.7 °F 91% 30.12 in 10.0 mi NNW 12.7 mph 24.2 mph N/A   Overcast
3:55 AM 63.7 °F 59.9 °F 87% 30.13 in 10.0 mi NNW 10.4 mph 18.4 mph N/A   Overcast
4:15 AM 63.1 °F 59.0 °F 86% 30.13 in 10.0 mi North 13.8 mph 21.9 mph N/A   Overcast
4:35 AM 62.2 °F 58.3 °F 87% 30.15 in 10.0 mi North 15.0 mph 20.7 mph N/A   Overcast
4:55 AM 61.5 °F 57.9 °F 88% 30.16 in 10.0 mi North 15.0 mph 20.7 mph N/A   Overcast
5:15 AM 61.0 °F 57.2 °F 87% 30.17 in 10.0 mi NNW 16.1 mph - N/A   Overcast
5:35 AM 60.1 °F 56.3 °F 87% 30.18 in 10.0 mi North 13.8 mph 18.4 mph N/A   Overcast
5:55 AM 58.6 °F 55.2 °F 88% 30.20 in 10.0 mi North 10.4 mph 16.1 mph N/A   Overcast
6:15 AM 58.5 °F 55.0 °F 88% 30.21 in 10.0 mi NNW 9.2 mph 16.1 mph N/A   Overcast
6:35 AM 58.1 °F 54.7 °F 88% 30.21 in 10.0 mi North - - N/A   Overcast
6:55 AM 58.1 °F 54.3 °F 87% 30.22 in 10.0 mi NNW 11.5 mph 19.6 mph N/A   Overcast
7:15 AM 57.6 °F 53.6 °F 87% 30.23 in 10.0 mi North 12.7 mph 21.9 mph N/A   Overcast
7:35 AM 56.7 °F 53.1 °F 88% 30.24 in 10.0 mi NNW 16.1 mph 21.9 mph N/A   Overcast
7:55 AM 55.6 °F 52.3 °F 89% 30.25 in 10.0 mi NNW 10.4 mph 19.6 mph N/A   Overcast
8:15 AM 55.8 °F 52.2 °F 88% 30.26 in 10.0 mi NNW 10.4 mph 18.4 mph N/A   Overcast
8:35 AM 55.0 °F 51.8 °F 89% 30.27 in 10.0 mi NNW 12.7 mph 18.4 mph N/A   Overcast
8:55 AM 55.4 °F 51.3 °F 86% 30.27 in 10.0 mi North 12.7 mph 17.3 mph N/A   Overcast
9:15 AM 55.4 °F 49.5 °F 80% 30.29 in 10.0 mi North 9.2 mph 16.1 mph N/A   Overcast
9:35 AM 53.6 °F 48.2 °F 82% 30.30 in 10.0 mi NNW 15.0 mph 21.9 mph N/A   Overcast
9:55 AM 53.6 °F 47.7 °F 80% 30.30 in 10.0 mi North 9.2 mph 19.6 mph N/A   Overcast
10:15 AM 53.1 °F 46.6 °F 79% 30.30 in 10.0 mi NNW 15.0 mph 20.7 mph N/A   Overcast
10:35 AM 52.7 °F 45.3 °F 76% 30.30 in 10.0 mi North 16.1 mph 21.9 mph N/A   Overcast
10:55 AM 54.3 °F 45.3 °F 72% 30.29 in 10.0 mi NNW 12.7 mph 19.6 mph N/A   Mostly Cloudy
11:15 AM 55.8 °F 44.1 °F 65% 30.29 in 10.0 mi North 10.4 mph 18.4 mph N/A   Scattered Clouds
11:35 AM 56.1 °F 43.3 °F 62% 30.28 in 10.0 mi NNE 9.2 mph 20.7 mph N/A   Clear
11:55 AM 58.3 °F 44.8 °F 61% 30.27 in 10.0 mi NNW 13.8 mph 19.6 mph N/A   Clear
12:15 PM 58.6 °F 43.0 °F 56% 30.26 in 10.0 mi North 9.2 mph 18.4 mph N/A   Clear
12:35 PM 60.3 °F 43.5 °F 54% 30.25 in 10.0 mi North 10.4 mph 18.4 mph N/A   Clear
12:55 PM 61.0 °F 42.8 °F 51% 30.24 in 10.0 mi North 11.5 mph 19.6 mph N/A   Clear
1:15 PM 62.6 °F 41.5 °F 46% 30.24 in 10.0 mi North 12.7 mph 18.4 mph N/A   Clear
1:35 PM 61.9 °F 39.9 °F 44% 30.23 in 10.0 mi North 11.5 mph 23.0 mph N/A   Clear
1:55 PM 62.6 °F 41.2 °F 45% 30.23 in 10.0 mi North 15.0 mph 24.2 mph N/A   Clear
2:15 PM 62.6 °F 41.0 °F 45% 30.23 in 10.0 mi North 9.2 mph 20.7 mph N/A   Clear
2:35 PM 63.7 °F 40.6 °F 43% 30.22 in 10.0 mi North 11.5 mph 18.4 mph N/A   Clear
2:55 PM 63.7 °F 39.0 °F 40% 30.22 in 10.0 mi North 15.0 mph 20.7 mph N/A   Clear
3:15 PM 63.9 °F 39.6 °F 41% 30.22 in 10.0 mi North 11.5 mph 20.7 mph N/A   Clear
3:35 PM 63.5 °F 39.2 °F 41% 30.23 in 10.0 mi North 11.5 mph - N/A   Clear
3:55 PM 63.5 °F 40.1 °F 42% 30.23 in 10.0 mi North 12.7 mph 17.3 mph N/A   Clear
4:35 PM 61.7 °F 40.3 °F 45% 30.24 in 10.0 mi NNW 8.1 mph - N/A   Clear
4:55 PM 60.8 °F 40.8 °F 48% 30.24 in 10.0 mi North 6.9 mph - N/A   Clear
5:15 PM 59.0 °F 41.2 °F 52% 30.25 in 10.0 mi NNW 5.8 mph - N/A   Clear
5:35 PM 58.1 °F 40.6 °F 52% 30.26 in 10.0 mi North 6.9 mph - N/A   Clear
5:55 PM 57.6 °F 40.5 °F 53% 30.26 in 10.0 mi North 8.1 mph 16.1 mph N/A   Clear
6:15 PM 57.0 °F 40.1 °F 53% 30.27 in 10.0 mi North 8.1 mph - N/A   Clear
6:35 PM 56.3 °F 41.0 °F 57% 30.27 in 10.0 mi North 6.9 mph - N/A   Clear
6:55 PM 55.4 °F 41.0 °F 58% 30.28 in 10.0 mi North 8.1 mph - N/A   Clear
7:15 PM 55.0 °F 40.1 °F 57% 30.29 in 10.0 mi North 10.4 mph 17.3 mph N/A   Clear
7:35 PM 54.7 °F 38.8 °F 55% 30.30 in 10.0 mi North 8.1 mph - N/A   Clear
7:55 PM 53.8 °F 39.2 °F 58% 30.31 in 10.0 mi North 6.9 mph - N/A   Clear
8:15 PM 53.2 °F 40.3 °F 61% 30.31 in 10.0 mi North 9.2 mph - N/A   Clear
8:35 PM 52.7 °F 40.6 °F 64% 30.32 in 10.0 mi North 8.1 mph - N/A   Clear
8:55 PM 52.0 °F 41.0 °F 66% 30.33 in 10.0 mi North 9.2 mph - N/A   Clear
9:15 PM 51.4 °F 40.8 °F 67% 30.32 in 10.0 mi North 6.9 mph - N/A   Clear
9:35 PM 50.9 °F 41.0 °F 69% 30.33 in 10.0 mi North 6.9 mph - N/A   Clear
9:55 PM 50.4 °F 40.5 °F 69% 30.33 in 10.0 mi North 6.9 mph - N/A   Clear
10:15 PM 50.2 °F 40.1 °F 68% 30.32 in 10.0 mi North 4.6 mph - N/A   Clear
10:35 PM 49.6 °F 39.6 °F 68% 30.32 in 10.0 mi North 3.5 mph - N/A   Clear
10:55 PM 49.6 °F 39.0 °F 67% 30.31 in 10.0 mi North 4.6 mph - N/A   Clear
11:15 PM 49.3 °F 38.3 °F 66% 30.31 in 10.0 mi North 5.8 mph - N/A   Clear
11:35 PM 49.3 °F 37.9 °F 65% 30.31 in 10.0 mi North 5.8 mph - N/A   Clear
11:55 PM 48.6 °F 37.9 °F 67% 30.30 in 10.0 mi North 4.6 mph - N/A   Clear